Yr Wyddgrug, United Kingdom
Current Conditions -  °F | °C
As of 12:20 PM on Friday 24 Oct 2014 (Local Time) from EGNR Reporting Station
Scattered Clouds Scattered Clouds  
Wind Chill: 14°   Ceiling: Unl
Heat Index: 14°   Visibility: 6mi
Dew Point: 10°   Wind: 8mph
Humidity: 77%   Direction: 250°WSW
Pressure: 29.88"   Gusts: NA
Location:  53.17°N, 3.14°W
Report Text: EGNR 241120Z 25007KT 9999 FEW008 SCT023 14/10 Q1012
Loading
Personal Weather Stations






























Interactive Weather Map
Tropical Storm Tracking
New forecast layout! Learn more

10-Day Weather Forecast

Advertisements
Track Severe Weather on mobile